sensor_id;sensor_type;location;lat;lon;timestamp;P1;durP1;ratioP1;P2;durP2;ratioP2
27684;SDS011;46113;50.130;8.526;2022-11-04T05:17:03;4.90;;;0.70;;
27684;SDS011;46113;50.130;8.526;2022-11-04T05:19:30;2.72;;;1.00;;
27684;SDS011;46113;50.130;8.526;2022-11-04T05:21:56;0.60;;;0.60;;
27684;SDS011;46113;50.130;8.526;2022-11-04T05:24:23;3.75;;;1.20;;
27684;SDS011;46113;50.130;8.526;2022-11-04T05:26:49;4.25;;;1.58;;
27684;SDS011;46113;50.130;8.526;2022-11-04T05:29:16;1.83;;;0.98;;
27684;SDS011;46113;50.130;8.526;2022-11-04T05:31:58;3.85;;;0.85;;
27684;SDS011;46113;50.130;8.526;2022-11-04T05:34:24;3.90;;;1.45;;
27684;SDS011;46113;50.130;8.526;2022-11-04T05:36:51;1.67;;;1.20;;
27684;SDS011;46113;50.130;8.526;2022-11-04T05:39:17;5.93;;;1.27;;
27684;SDS011;46113;50.130;8.526;2022-11-04T05:41:44;1.02;;;0.80;;
27684;SDS011;46113;50.130;8.526;2022-11-04T05:44:10;5.00;;;1.38;;
27684;SDS011;46113;50.130;8.526;2022-11-04T05:46:37;4.88;;;1.50;;
27684;SDS011;46113;50.130;8.526;2022-11-04T05:49:04;0.50;;;0.45;;
27684;SDS011;46113;50.130;8.526;2022-11-04T05:51:31;3.33;;;0.80;;
27684;SDS011;46113;50.130;8.526;2022-11-04T05:53:58;1.50;;;0.88;;
27684;SDS011;46113;50.130;8.526;2022-11-04T05:56:25;1.63;;;0.82;;
27684;SDS011;46113;50.130;8.526;2022-11-04T05:58:52;3.40;;;0.85;;
27684;SDS011;46113;50.130;8.526;2022-11-04T06:01:33;4.40;;;1.00;;
27684;SDS011;46113;50.130;8.526;2022-11-04T06:04:01;1.83;;;0.90;;
27684;SDS011;46113;50.130;8.526;2022-11-04T06:06:31;2.67;;;1.55;;
27684;SDS011;46113;50.130;8.526;2022-11-04T06:09:08;3.70;;;1.10;;
27684;SDS011;46113;50.130;8.526;2022-11-04T06:11:34;5.32;;;2.30;;
27684;SDS011;46113;50.130;8.526;2022-11-04T06:14:02;3.55;;;1.90;;
27684;SDS011;46113;50.130;8.526;2022-11-04T06:16:29;5.50;;;1.63;;
27684;SDS011;46113;50.130;8.526;2022-11-04T06:18:56;6.32;;;1.25;;
27684;SDS011;46113;50.130;8.526;2022-11-04T06:21:31;2.03;;;0.88;;
27684;SDS011;46113;50.130;8.526;2022-11-04T06:24:00;2.67;;;0.82;;
27684;SDS011;46113;50.130;8.526;2022-11-04T06:26:31;2.83;;;1.05;;
27684;SDS011;46113;50.130;8.526;2022-11-04T06:29:01;1.08;;;0.88;;
27684;SDS011;46113;50.130;8.526;2022-11-04T06:31:32;7.10;;;1.70;;
27684;SDS011;46113;50.130;8.526;2022-11-04T06:36:45;3.25;;;0.98;;
27684;SDS011;46113;50.130;8.526;2022-11-04T06:39:11;4.35;;;1.85;;
27684;SDS011;46113;50.130;8.526;2022-11-04T06:41:38;4.00;;;1.75;;
27684;SDS011;46113;50.130;8.526;2022-11-04T06:44:11;2.83;;;1.10;;
27684;SDS011;46113;50.130;8.526;2022-11-04T06:46:41;8.73;;;1.27;;
27684;SDS011;46113;50.130;8.526;2022-11-04T06:49:16;3.33;;;0.75;;
27684;SDS011;46113;50.130;8.526;2022-11-04T06:51:43;7.90;;;2.17;;
27684;SDS011;46113;50.130;8.526;2022-11-04T06:57:36;2.67;;;1.40;;
27684;SDS011;46113;50.130;8.526;2022-11-04T07:00:14;3.03;;;0.82;;
27684;SDS011;46113;50.130;8.526;2022-11-04T07:02:41;1.80;;;0.80;;
27684;SDS011;46113;50.130;8.526;2022-11-04T07:05:08;1.67;;;1.15;;
27684;SDS011;46113;50.130;8.526;2022-11-04T07:07:35;4.88;;;0.90;;
27684;SDS011;46113;50.130;8.526;2022-11-04T07:10:01;2.00;;;1.30;;
27684;SDS011;46113;50.130;8.526;2022-11-04T07:15:52;2.17;;;1.85;;
27684;SDS011;46113;50.130;8.526;2022-11-04T07:18:21;4.13;;;1.40;;
27684;SDS011;46113;50.130;8.526;2022-11-04T07:20:47;5.20;;;1.33;;
27684;SDS011;46113;50.130;8.526;2022-11-04T07:23:15;5.57;;;1.55;;
27684;SDS011;46113;50.130;8.526;2022-11-04T07:25:43;3.55;;;1.40;;
27684;SDS011;46113;50.130;8.526;2022-11-04T07:28:16;3.20;;;1.33;;
27684;SDS011;46113;50.130;8.526;2022-11-04T07:30:44;3.25;;;1.02;;
27684;SDS011;46113;50.130;8.526;2022-11-04T07:33:14;7.07;;;1.67;;
27684;SDS011;46113;50.130;8.526;2022-11-04T07:35:43;4.60;;;1.40;;
27684;SDS011;46113;50.130;8.526;2022-11-04T07:38:11;3.60;;;1.38;;
27684;SDS011;46113;50.130;8.526;2022-11-04T07:40:37;5.60;;;1.23;;
27684;SDS011;46113;50.130;8.526;2022-11-04T07:46:03;6.28;;;1.30;;
27684;SDS011;46113;50.130;8.526;2022-11-04T07:48:33;5.00;;;1.63;;
27684;SDS011;46113;50.130;8.526;2022-11-04T07:51:05;4.75;;;1.52;;
27684;SDS011;46113;50.130;8.526;2022-11-04T07:56:29;4.50;;;1.40;;
27684;SDS011;46113;50.130;8.526;2022-11-04T07:58:58;3.83;;;1.30;;
27684;SDS011;46113;50.130;8.526;2022-11-04T08:01:27;3.25;;;1.38;;
27684;SDS011;46113;50.130;8.526;2022-11-04T08:03:58;3.08;;;1.17;;
27684;SDS011;46113;50.130;8.526;2022-11-04T08:06:38;6.38;;;1.70;;
27684;SDS011;46113;50.130;8.526;2022-11-04T08:11:32;4.28;;;0.90;;
27684;SDS011;46113;50.130;8.526;2022-11-04T08:13:58;4.15;;;1.02;;
27684;SDS011;46113;50.130;8.526;2022-11-04T08:16:28;3.45;;;1.20;;
27684;SDS011;46113;50.130;8.526;2022-11-04T08:18:59;3.60;;;1.20;;
27684;SDS011;46113;50.130;8.526;2022-11-04T08:21:32;7.57;;;1.40;;
27684;SDS011;46113;50.130;8.526;2022-11-04T08:23:59;4.57;;;1.10;;
27684;SDS011;46113;50.130;8.526;2022-11-04T08:31:56;3.10;;;1.00;;
27684;SDS011;46113;50.130;8.526;2022-11-04T08:34:22;2.33;;;0.90;;
27684;SDS011;46113;50.130;8.526;2022-11-04T08:36:49;4.32;;;1.55;;
27684;SDS011;46113;50.130;8.526;2022-11-04T08:39:18;4.35;;;0.90;;
27684;SDS011;46113;50.130;8.526;2022-11-04T08:41:44;5.18;;;1.20;;
27684;SDS011;46113;50.130;8.526;2022-11-04T08:44:11;4.90;;;1.35;;
27684;SDS011;46113;50.130;8.526;2022-11-04T08:49:38;6.38;;;1.50;;
27684;SDS011;46113;50.130;8.526;2022-11-04T08:52:12;3.80;;;1.10;;
27684;SDS011;46113;50.130;8.526;2022-11-04T08:54:38;7.53;;;1.45;;
27684;SDS011;46113;50.130;8.526;2022-11-04T08:57:05;6.75;;;1.20;;
27684;SDS011;46113;50.130;8.526;2022-11-04T08:59:33;3.95;;;1.20;;
27684;SDS011;46113;50.130;8.526;2022-11-04T09:01:59;3.13;;;1.10;;
27684;SDS011;46113;50.130;8.526;2022-11-04T09:04:26;1.58;;;1.05;;
27684;SDS011;46113;50.130;8.526;2022-11-04T09:06:58;3.40;;;1.38;;
27684;SDS011;46113;50.130;8.526;2022-11-04T09:09:33;2.40;;;1.13;;
27684;SDS011;46113;50.130;8.526;2022-11-04T09:14:59;3.40;;;1.60;;
27684;SDS011;46113;50.130;8.526;2022-11-04T09:21:05;4.82;;;1.35;;
27684;SDS011;46113;50.130;8.526;2022-11-04T09:23:33;4.30;;;1.30;;
27684;SDS011;46113;50.130;8.526;2022-11-04T09:26:07;12.43;;;1.83;;
27684;SDS011;46113;50.130;8.526;2022-11-04T09:28:35;7.88;;;1.58;;
27684;SDS011;46113;50.130;8.526;2022-11-04T09:31:06;6.25;;;1.30;;
27684;SDS011;46113;50.130;8.526;2022-11-04T09:33:34;3.50;;;1.20;;
27684;SDS011;46113;50.130;8.526;2022-11-04T09:36:01;8.93;;;2.65;;
27684;SDS011;46113;50.130;8.526;2022-11-04T09:38:27;6.53;;;0.98;;
27684;SDS011;46113;50.130;8.526;2022-11-04T09:40:54;6.50;;;1.52;;
27684;SDS011;46113;50.130;8.526;2022-11-04T09:43:30;4.97;;;1.33;;
27684;SDS011;46113;50.130;8.526;2022-11-04T09:46:10;5.03;;;1.25;;
27684;SDS011;46113;50.130;8.526;2022-11-04T09:48:40;1.63;;;0.95;;
27684;SDS011;46113;50.130;8.526;2022-11-04T09:51:12;6.15;;;1.20;;
27684;SDS011;46113;50.130;8.526;2022-11-04T09:54:03;2.03;;;1.33;;
27684;SDS011;46113;50.130;8.526;2022-11-04T09:56:41;8.80;;;1.00;;
27684;SDS011;46113;50.130;8.526;2022-11-04T09:59:10;4.18;;;0.93;;
27684;SDS011;46113;50.130;8.526;2022-11-04T10:04:51;5.00;;;1.33;;
27684;SDS011;46113;50.130;8.526;2022-11-04T10:23:21;6.22;;;1.10;;
27684;SDS011;46113;50.130;8.526;2022-11-04T10:25:59;6.80;;;2.42;;
27684;SDS011;46113;50.130;8.526;2022-11-04T10:28:38;2.88;;;1.23;;
27684;SDS011;46113;50.130;8.526;2022-11-04T10:31:10;3.08;;;0.98;;
27684;SDS011;46113;50.130;8.526;2022-11-04T10:33:42;6.82;;;1.13;;
27684;SDS011;46113;50.130;8.526;2022-11-04T10:36:29;4.68;;;1.60;;
27684;SDS011;46113;50.130;8.526;2022-11-04T10:38:56;3.63;;;1.23;;
27684;SDS011;46113;50.130;8.526;2022-11-04T10:44:56;3.47;;;1.02;;
27684;SDS011;46113;50.130;8.526;2022-11-04T10:51:00;2.67;;;0.90;;
27684;SDS011;46113;50.130;8.526;2022-11-04T10:53:28;4.25;;;0.93;;
27684;SDS011;46113;50.130;8.526;2022-11-04T10:56:05;7.55;;;1.20;;
27684;SDS011;46113;50.130;8.526;2022-11-04T10:58:46;2.92;;;1.30;;
27684;SDS011;46113;50.130;8.526;2022-11-04T11:06:55;2.38;;;0.90;;
27684;SDS011;46113;50.130;8.526;2022-11-04T11:09:25;3.53;;;0.80;;
27684;SDS011;46113;50.130;8.526;2022-11-04T11:12:03;6.57;;;1.00;;
27684;SDS011;46113;50.130;8.526;2022-11-04T11:18:10;10.23;;;1.00;;
27684;SDS011;46113;50.130;8.526;2022-11-04T11:20:38;3.70;;;0.73;;
27684;SDS011;46113;50.130;8.526;2022-11-04T11:23:31;4.10;;;0.88;;
27684;SDS011;46113;50.130;8.526;2022-11-04T11:26:07;6.03;;;1.10;;
27684;SDS011;46113;50.130;8.526;2022-11-04T11:34:15;4.10;;;1.40;;
27684;SDS011;46113;50.130;8.526;2022-11-04T11:36:46;3.13;;;0.85;;
27684;SDS011;46113;50.130;8.526;2022-11-04T11:39:15;2.83;;;0.57;;
27684;SDS011;46113;50.130;8.526;2022-11-04T11:47:36;3.08;;;0.70;;
27684;SDS011;46113;50.130;8.526;2022-11-04T11:52:44;4.57;;;0.85;;
27684;SDS011;46113;50.130;8.526;2022-11-04T11:55:22;4.45;;;1.10;;
27684;SDS011;46113;50.130;8.526;2022-11-04T11:57:57;5.72;;;1.15;;
27684;SDS011;46113;50.130;8.526;2022-11-04T12:00:51;4.25;;;1.13;;
27684;SDS011;46113;50.130;8.526;2022-11-04T12:03:47;2.35;;;0.95;;
27684;SDS011;46113;50.130;8.526;2022-11-04T12:13:26;4.53;;;1.33;;
27684;SDS011;46113;50.130;8.526;2022-11-04T12:21:25;2.95;;;0.65;;
27684;SDS011;46113;50.130;8.526;2022-11-04T12:24:07;6.60;;;1.20;;
27684;SDS011;46113;50.130;8.526;2022-11-04T12:48:53;7.65;;;1.00;;
27684;SDS011;46113;50.130;8.526;2022-11-04T12:51:57;3.92;;;0.60;;
27684;SDS011;46113;50.130;8.526;2022-11-04T12:57:08;2.25;;;0.47;;
27684;SDS011;46113;50.130;8.526;2022-11-04T13:13:20;2.85;;;0.70;;
27684;SDS011;46113;50.130;8.526;2022-11-04T13:15:56;6.47;;;0.88;;
27684;SDS011;46113;50.130;8.526;2022-11-04T13:18:29;1.17;;;0.80;;
27684;SDS011;46113;50.130;8.526;2022-11-04T13:21:08;6.75;;;1.05;;
27684;SDS011;46113;50.130;8.526;2022-11-04T13:26:48;4.85;;;0.60;;
27684;SDS011;46113;50.130;8.526;2022-11-04T13:29:31;2.50;;;0.55;;
27684;SDS011;46113;50.130;8.526;2022-11-04T13:39:59;5.40;;;0.85;;
27684;SDS011;46113;50.130;8.526;2022-11-04T13:45:53;2.83;;;0.70;;
27684;SDS011;46113;50.130;8.526;2022-11-04T13:48:25;3.03;;;0.55;;
27684;SDS011;46113;50.130;8.526;2022-11-04T13:53:52;3.10;;;0.60;;
27684;SDS011;46113;50.130;8.526;2022-11-04T13:59:01;3.30;;;1.10;;
27684;SDS011;46113;50.130;8.526;2022-11-04T14:04:45;2.75;;;0.50;;
27684;SDS011;46113;50.130;8.526;2022-11-04T14:07:13;4.95;;;1.08;;
27684;SDS011;46113;50.130;8.526;2022-11-04T14:22:53;4.32;;;0.85;;
27684;SDS011;46113;50.130;8.526;2022-11-04T14:25:26;1.83;;;0.68;;
27684;SDS011;46113;50.130;8.526;2022-11-04T14:27:58;3.97;;;1.00;;
27684;SDS011;46113;50.130;8.526;2022-11-04T14:31:01;7.90;;;1.08;;
27684;SDS011;46113;50.130;8.526;2022-11-04T14:36:30;4.05;;;0.70;;
27684;SDS011;46113;50.130;8.526;2022-11-04T14:44:00;3.40;;;0.70;;
27684;SDS011;46113;50.130;8.526;2022-11-04T14:46:33;6.40;;;0.90;;
27684;SDS011;46113;50.130;8.526;2022-11-04T14:49:06;1.42;;;0.60;;
27684;SDS011;46113;50.130;8.526;2022-11-04T14:51:43;3.85;;;0.98;;
27684;SDS011;46113;50.130;8.526;2022-11-04T14:54:20;5.68;;;1.83;;
27684;SDS011;46113;50.130;8.526;2022-11-04T14:57:05;4.88;;;0.85;;
27684;SDS011;46113;50.130;8.526;2022-11-04T14:59:34;4.30;;;0.60;;
27684;SDS011;46113;50.130;8.526;2022-11-04T15:02:02;2.40;;;1.00;;
27684;SDS011;46113;50.130;8.526;2022-11-04T15:04:29;7.00;;;0.88;;
27684;SDS011;46113;50.130;8.526;2022-11-04T15:06:58;5.07;;;0.93;;
27684;SDS011;46113;50.130;8.526;2022-11-04T15:10:02;4.40;;;0.75;;
27684;SDS011;46113;50.130;8.526;2022-11-04T15:12:21;6.13;;;1.00;;
27684;SDS011;46113;50.130;8.526;2022-11-04T15:15:26;2.00;;;0.90;;
27684;SDS011;46113;50.130;8.526;2022-11-04T15:18:01;8.00;;;0.85;;
27684;SDS011;46113;50.130;8.526;2022-11-04T15:20:40;2.72;;;0.73;;
27684;SDS011;46113;50.130;8.526;2022-11-04T15:29:18;5.05;;;1.00;;
27684;SDS011;46113;50.130;8.526;2022-11-04T15:31:52;4.38;;;0.70;;
27684;SDS011;46113;50.130;8.526;2022-11-04T15:34:21;5.82;;;1.08;;
27684;SDS011;46113;50.130;8.526;2022-11-04T15:40:12;1.00;;;0.55;;
27684;SDS011;46113;50.130;8.526;2022-11-04T15:42:39;0.60;;;0.50;;
27684;SDS011;46113;50.130;8.526;2022-11-04T15:45:55;6.43;;;1.13;;
27684;SDS011;46113;50.130;8.526;2022-11-04T15:48:21;2.42;;;1.27;;
27684;SDS011;46113;50.130;8.526;2022-11-04T15:51:07;3.78;;;0.73;;
27684;SDS011;46113;50.130;8.526;2022-11-04T15:56:43;3.13;;;1.00;;
27684;SDS011;46113;50.130;8.526;2022-11-04T15:59:19;3.17;;;1.35;;
27684;SDS011;46113;50.130;8.526;2022-11-04T16:01:49;3.30;;;1.17;;
27684;SDS011;46113;50.130;8.526;2022-11-04T16:04:19;7.32;;;2.10;;
27684;SDS011;46113;50.130;8.526;2022-11-04T16:07:00;2.45;;;0.98;;
27684;SDS011;46113;50.130;8.526;2022-11-04T16:09:51;3.42;;;1.10;;
27684;SDS011;46113;50.130;8.526;2022-11-04T16:14:52;1.65;;;0.90;;
27684;SDS011;46113;50.130;8.526;2022-11-04T16:17:23;5.47;;;1.88;;
27684;SDS011;46113;50.130;8.526;2022-11-04T16:19:55;7.93;;;1.83;;
27684;SDS011;46113;50.130;8.526;2022-11-04T16:22:31;3.55;;;1.30;;
27684;SDS011;46113;50.130;8.526;2022-11-04T16:25:02;1.80;;;1.13;;
27684;SDS011;46113;50.130;8.526;2022-11-04T16:27:32;6.18;;;2.25;;
27684;SDS011;46113;50.130;8.526;2022-11-04T16:30:01;5.60;;;2.90;;
27684;SDS011;46113;50.130;8.526;2022-11-04T16:32:51;6.05;;;4.07;;
27684;SDS011;46113;50.130;8.526;2022-11-04T16:35:25;6.13;;;2.83;;
27684;SDS011;46113;50.130;8.526;2022-11-04T16:37:53;6.10;;;3.15;;
27684;SDS011;46113;50.130;8.526;2022-11-04T16:40:21;18.65;;;9.02;;
27684;SDS011;46113;50.130;8.526;2022-11-04T16:42:49;11.65;;;6.25;;
27684;SDS011;46113;50.130;8.526;2022-11-04T16:45:18;7.97;;;5.05;;
27684;SDS011;46113;50.130;8.526;2022-11-04T16:47:47;6.28;;;3.30;;
27684;SDS011;46113;50.130;8.526;2022-11-04T16:50:15;3.83;;;2.28;;
27684;SDS011;46113;50.130;8.526;2022-11-04T16:52:43;5.18;;;1.83;;
27684;SDS011;46113;50.130;8.526;2022-11-04T16:55:10;4.07;;;1.42;;
27684;SDS011;46113;50.130;8.526;2022-11-04T16:57:38;4.80;;;2.00;;
27684;SDS011;46113;50.130;8.526;2022-11-04T17:00:05;6.13;;;1.90;;
27684;SDS011;46113;50.130;8.526;2022-11-04T17:02:33;7.68;;;1.85;;
27684;SDS011;46113;50.130;8.526;2022-11-04T17:05:06;5.90;;;1.58;;
27684;SDS011;46113;50.130;8.526;2022-11-04T17:07:37;4.18;;;1.42;;
27684;SDS011;46113;50.130;8.526;2022-11-04T17:10:21;5.60;;;1.80;;
27684;SDS011;46113;50.130;8.526;2022-11-04T17:12:50;5.78;;;1.60;;
27684;SDS011;46113;50.130;8.526;2022-11-04T17:15:16;4.82;;;1.95;;
27684;SDS011;46113;50.130;8.526;2022-11-04T17:17:43;3.97;;;2.38;;
27684;SDS011;46113;50.130;8.526;2022-11-04T17:20:11;5.95;;;2.28;;
27684;SDS011;46113;50.130;8.526;2022-11-04T17:22:42;4.53;;;2.78;;
27684;SDS011;46113;50.130;8.526;2022-11-04T17:25:14;7.60;;;3.38;;
27684;SDS011;46113;50.130;8.526;2022-11-04T17:27:46;2.13;;;1.77;;
27684;SDS011;46113;50.130;8.526;2022-11-04T17:30:13;4.18;;;2.30;;
27684;SDS011;46113;50.130;8.526;2022-11-04T17:32:42;5.07;;;1.42;;
27684;SDS011;46113;50.130;8.526;2022-11-04T17:35:09;6.15;;;1.33;;
27684;SDS011;46113;50.130;8.526;2022-11-04T17:37:37;7.57;;;2.50;;
27684;SDS011;46113;50.130;8.526;2022-11-04T17:40:04;2.40;;;1.55;;
27684;SDS011;46113;50.130;8.526;2022-11-04T17:42:32;5.57;;;1.45;;
27684;SDS011;46113;50.130;8.526;2022-11-04T17:45:17;3.30;;;2.42;;
27684;SDS011;46113;50.130;8.526;2022-11-04T17:47:44;3.97;;;2.35;;
27684;SDS011;46113;50.130;8.526;2022-11-04T17:50:11;3.85;;;2.35;;
27684;SDS011;46113;50.130;8.526;2022-11-04T17:52:37;6.28;;;3.00;;
27684;SDS011;46113;50.130;8.526;2022-11-04T17:55:05;5.88;;;2.22;;
27684;SDS011;46113;50.130;8.526;2022-11-04T17:57:35;5.78;;;2.55;;
27684;SDS011;46113;50.130;8.526;2022-11-04T18:00:02;5.18;;;3.10;;
27684;SDS011;46113;50.130;8.526;2022-11-04T18:02:31;6.45;;;2.90;;
27684;SDS011;46113;50.130;8.526;2022-11-04T18:04:58;3.80;;;2.83;;
27684;SDS011;46113;50.130;8.526;2022-11-04T18:07:27;6.57;;;3.33;;
27684;SDS011;46113;50.130;8.526;2022-11-04T18:09:53;6.80;;;3.72;;
27684;SDS011;46113;50.130;8.526;2022-11-04T18:12:20;6.78;;;3.13;;
27684;SDS011;46113;50.130;8.526;2022-11-04T18:15:12;11.05;;;3.65;;
27684;SDS011;46113;50.130;8.526;2022-11-04T18:17:42;7.57;;;2.92;;
27684;SDS011;46113;50.130;8.526;2022-11-04T18:20:11;10.05;;;4.88;;
27684;SDS011;46113;50.130;8.526;2022-11-04T18:22:40;11.05;;;5.75;;
27684;SDS011;46113;50.130;8.526;2022-11-04T18:25:08;9.23;;;4.05;;
27684;SDS011;46113;50.130;8.526;2022-11-04T18:27:35;6.15;;;3.40;;
27684;SDS011;46113;50.130;8.526;2022-11-04T18:30:02;5.60;;;3.00;;
27684;SDS011;46113;50.130;8.526;2022-11-04T18:32:29;7.93;;;3.80;;
27684;SDS011;46113;50.130;8.526;2022-11-04T18:34:55;6.03;;;3.60;;
27684;SDS011;46113;50.130;8.526;2022-11-04T18:37:22;10.25;;;4.22;;
27684;SDS011;46113;50.130;8.526;2022-11-04T18:39:49;7.65;;;3.85;;
27684;SDS011;46113;50.130;8.526;2022-11-04T18:42:16;8.75;;;4.25;;
27684;SDS011;46113;50.130;8.526;2022-11-04T18:44:42;8.95;;;4.35;;
27684;SDS011;46113;50.130;8.526;2022-11-04T18:47:09;9.93;;;5.15;;
27684;SDS011;46113;50.130;8.526;2022-11-04T18:49:35;10.43;;;4.55;;
27684;SDS011;46113;50.130;8.526;2022-11-04T18:52:02;5.68;;;4.13;;
27684;SDS011;46113;50.130;8.526;2022-11-04T18:54:28;6.80;;;4.70;;
27684;SDS011;46113;50.130;8.526;2022-11-04T18:56:55;6.63;;;4.22;;
27684;SDS011;46113;50.130;8.526;2022-11-04T18:59:22;7.47;;;3.92;;
27684;SDS011;46113;50.130;8.526;2022-11-04T19:01:48;12.73;;;4.70;;
27684;SDS011;46113;50.130;8.526;2022-11-04T19:04:17;13.50;;;4.32;;
27684;SDS011;46113;50.130;8.526;2022-11-04T19:06:44;10.45;;;4.88;;
27684;SDS011;46113;50.130;8.526;2022-11-04T19:09:12;7.07;;;3.80;;
27684;SDS011;46113;50.130;8.526;2022-11-04T19:12:00;6.53;;;3.85;;
27684;SDS011;46113;50.130;8.526;2022-11-04T19:14:45;6.95;;;4.30;;
27684;SDS011;46113;50.130;8.526;2022-11-04T19:17:12;8.73;;;4.57;;
27684;SDS011;46113;50.130;8.526;2022-11-04T19:19:38;8.50;;;4.13;;
27684;SDS011;46113;50.130;8.526;2022-11-04T19:24:48;6.70;;;3.20;;
27684;SDS011;46113;50.130;8.526;2022-11-04T19:27:15;7.15;;;3.97;;
27684;SDS011;46113;50.130;8.526;2022-11-04T19:29:43;14.07;;;4.28;;
27684;SDS011;46113;50.130;8.526;2022-11-04T19:32:09;5.85;;;4.00;;
27684;SDS011;46113;50.130;8.526;2022-11-04T19:34:39;7.22;;;4.00;;
27684;SDS011;46113;50.130;8.526;2022-11-04T19:37:06;7.60;;;4.50;;
27684;SDS011;46113;50.130;8.526;2022-11-04T19:39:33;9.90;;;4.45;;
27684;SDS011;46113;50.130;8.526;2022-11-04T19:41:59;9.55;;;5.22;;
27684;SDS011;46113;50.130;8.526;2022-11-04T19:44:44;6.10;;;4.22;;
27684;SDS011;46113;50.130;8.526;2022-11-04T19:47:11;8.02;;;4.05;;
27684;SDS011;46113;50.130;8.526;2022-11-04T19:49:37;8.02;;;3.72;;
27684;SDS011;46113;50.130;8.526;2022-11-04T19:52:07;9.45;;;3.90;;
27684;SDS011;46113;50.130;8.526;2022-11-04T19:54:36;5.78;;;4.57;;
27684;SDS011;46113;50.130;8.526;2022-11-04T19:57:06;6.68;;;4.30;;
27684;SDS011;46113;50.130;8.526;2022-11-04T19:59:38;6.43;;;4.40;;
27684;SDS011;46113;50.130;8.526;2022-11-04T20:02:04;8.40;;;3.60;;
27684;SDS011;46113;50.130;8.526;2022-11-04T20:04:31;8.55;;;4.40;;
27684;SDS011;46113;50.130;8.526;2022-11-04T20:07:00;5.70;;;4.35;;
27684;SDS011;46113;50.130;8.526;2022-11-04T20:09:27;5.82;;;3.42;;
27684;SDS011;46113;50.130;8.526;2022-11-04T20:11:53;8.73;;;4.20;;
27684;SDS011;46113;50.130;8.526;2022-11-04T20:14:38;12.40;;;3.95;;
27684;SDS011;46113;50.130;8.526;2022-11-04T20:17:05;8.93;;;5.13;;
27684;SDS011;46113;50.130;8.526;2022-11-04T20:19:32;4.68;;;3.47;;
27684;SDS011;46113;50.130;8.526;2022-11-04T20:22:00;4.55;;;2.97;;
27684;SDS011;46113;50.130;8.526;2022-11-04T20:24:26;4.80;;;2.92;;
27684;SDS011;46113;50.130;8.526;2022-11-04T20:26:52;6.78;;;3.58;;
27684;SDS011;46113;50.130;8.526;2022-11-04T20:29:19;4.97;;;2.80;;
27684;SDS011;46113;50.130;8.526;2022-11-04T20:31:45;6.20;;;3.00;;
27684;SDS011;46113;50.130;8.526;2022-11-04T20:34:12;4.47;;;2.78;;
27684;SDS011;46113;50.130;8.526;2022-11-04T20:36:41;5.78;;;3.47;;
27684;SDS011;46113;50.130;8.526;2022-11-04T20:39:18;9.65;;;4.38;;
27684;SDS011;46113;50.130;8.526;2022-11-04T20:41:45;4.25;;;3.63;;
27684;SDS011;46113;50.130;8.526;2022-11-04T20:44:12;5.93;;;3.10;;
27684;SDS011;46113;50.130;8.526;2022-11-04T20:46:39;5.15;;;3.92;;
27684;SDS011;46113;50.130;8.526;2022-11-04T20:49:07;7.22;;;3.15;;
27684;SDS011;46113;50.130;8.526;2022-11-04T20:51:34;6.45;;;4.53;;
27684;SDS011;46113;50.130;8.526;2022-11-04T20:54:02;4.63;;;2.60;;
27684;SDS011;46113;50.130;8.526;2022-11-04T20:56:35;4.68;;;3.85;;
27684;SDS011;46113;50.130;8.526;2022-11-04T20:59:03;5.20;;;3.58;;
27684;SDS011;46113;50.130;8.526;2022-11-04T21:01:35;10.85;;;5.15;;
27684;SDS011;46113;50.130;8.526;2022-11-04T21:04:04;8.52;;;5.65;;
27684;SDS011;46113;50.130;8.526;2022-11-04T21:06:37;9.43;;;5.80;;
27684;SDS011;46113;50.130;8.526;2022-11-04T21:09:08;9.15;;;5.60;;
27684;SDS011;46113;50.130;8.526;2022-11-04T21:11:36;7.10;;;5.25;;
27684;SDS011;46113;50.130;8.526;2022-11-04T21:14:05;7.93;;;4.75;;
27684;SDS011;46113;50.130;8.526;2022-11-04T21:16:33;9.60;;;5.55;;
27684;SDS011;46113;50.130;8.526;2022-11-04T21:19:01;7.18;;;4.82;;
27684;SDS011;46113;50.130;8.526;2022-11-04T21:21:28;10.23;;;5.20;;
27684;SDS011;46113;50.130;8.526;2022-11-04T21:23:56;8.85;;;4.97;;
27684;SDS011;46113;50.130;8.526;2022-11-04T21:26:24;10.07;;;6.47;;
27684;SDS011;46113;50.130;8.526;2022-11-04T21:28:56;8.98;;;6.20;;
27684;SDS011;46113;50.130;8.526;2022-11-04T21:31:26;7.95;;;3.92;;
27684;SDS011;46113;50.130;8.526;2022-11-04T21:33:54;6.95;;;3.55;;
27684;SDS011;46113;50.130;8.526;2022-11-04T21:36:21;10.68;;;3.65;;
27684;SDS011;46113;50.130;8.526;2022-11-04T21:38:48;5.07;;;2.72;;
27684;SDS011;46113;50.130;8.526;2022-11-04T21:41:19;5.70;;;3.17;;
27684;SDS011;46113;50.130;8.526;2022-11-04T21:46:20;7.68;;;3.33;;
27684;SDS011;46113;50.130;8.526;2022-11-04T21:48:47;3.28;;;2.70;;
27684;SDS011;46113;50.130;8.526;2022-11-04T21:51:14;6.30;;;3.92;;
27684;SDS011;46113;50.130;8.526;2022-11-04T21:53:42;8.38;;;3.47;;
27684;SDS011;46113;50.130;8.526;2022-11-04T21:56:11;7.43;;;3.88;;
27684;SDS011;46113;50.130;8.526;2022-11-04T21:58:40;6.82;;;4.00;;
27684;SDS011;46113;50.130;8.526;2022-11-04T22:01:09;5.53;;;3.03;;
27684;SDS011;46113;50.130;8.526;2022-11-04T22:03:37;3.83;;;3.17;;
27684;SDS011;46113;50.130;8.526;2022-11-04T22:06:11;5.65;;;3.97;;
27684;SDS011;46113;50.130;8.526;2022-11-04T22:08:41;5.18;;;3.42;;
27684;SDS011;46113;50.130;8.526;2022-11-04T22:11:10;4.45;;;3.08;;
27684;SDS011;46113;50.130;8.526;2022-11-04T22:13:39;5.20;;;3.38;;
27684;SDS011;46113;50.130;8.526;2022-11-04T22:16:16;8.52;;;4.32;;
27684;SDS011;46113;50.130;8.526;2022-11-04T22:18:45;7.05;;;3.83;;
27684;SDS011;46113;50.130;8.526;2022-11-04T22:21:13;6.47;;;3.20;;
27684;SDS011;46113;50.130;8.526;2022-11-04T22:23:42;4.05;;;3.38;;
27684;SDS011;46113;50.130;8.526;2022-11-04T22:26:17;6.43;;;3.10;;
27684;SDS011;46113;50.130;8.526;2022-11-04T22:28:45;5.18;;;3.05;;
27684;SDS011;46113;50.130;8.526;2022-11-04T22:31:19;3.80;;;3.13;;
27684;SDS011;46113;50.130;8.526;2022-11-04T22:33:51;3.88;;;3.13;;
27684;SDS011;46113;50.130;8.526;2022-11-04T22:36:18;6.60;;;3.28;;
27684;SDS011;46113;50.130;8.526;2022-11-04T22:38:45;4.55;;;2.97;;
27684;SDS011;46113;50.130;8.526;2022-11-04T22:41:13;4.32;;;3.03;;
27684;SDS011;46113;50.130;8.526;2022-11-04T22:43:42;3.72;;;2.65;;
27684;SDS011;46113;50.130;8.526;2022-11-04T22:46:13;4.13;;;2.70;;
27684;SDS011;46113;50.130;8.526;2022-11-04T22:48:41;6.45;;;2.70;;
27684;SDS011;46113;50.130;8.526;2022-11-04T22:51:08;4.18;;;3.35;;
27684;SDS011;46113;50.130;8.526;2022-11-04T22:53:35;5.40;;;2.63;;
